createdAt,value
2019-04-14T00:01:47.693Z,30.67
2019-04-14T00:04:34.018Z,33.57
2019-04-14T00:07:03.684Z,33.47
2019-04-14T00:09:33.728Z,33.77
2019-04-14T00:12:05.801Z,32.37
2019-04-14T00:14:34.261Z,35.60
2019-04-14T00:17:04.227Z,34.10
2019-04-14T00:19:34.666Z,35.43
2019-04-14T00:22:05.299Z,35.00
2019-04-14T00:24:35.744Z,31.90
2019-04-14T00:27:06.351Z,33.17
2019-04-14T00:29:37.040Z,34.50
2019-04-14T00:32:07.357Z,33.57
2019-04-14T00:34:55.012Z,37.07
2019-04-14T00:37:59.796Z,34.40
2019-04-14T00:40:35.039Z,35.43
2019-04-14T00:43:22.038Z,38.97
2019-04-14T00:46:00.519Z,33.77
2019-04-14T00:48:29.899Z,37.20
2019-04-14T00:51:00.482Z,36.70
2019-04-14T00:53:29.943Z,33.40
2019-04-14T00:55:59.741Z,35.23
2019-04-14T00:58:29.997Z,37.60
2019-04-14T01:01:00.431Z,34.27
2019-04-14T01:03:30.939Z,37.93
2019-04-14T01:06:01.155Z,35.07
2019-04-14T01:08:31.411Z,38.17
2019-04-14T01:11:01.095Z,38.17
2019-04-14T01:13:31.114Z,36.63
2019-04-14T01:16:07.034Z,33.33
2019-04-14T01:18:31.951Z,38.13
2019-04-14T01:21:02.411Z,38.03
2019-04-14T01:23:32.636Z,34.40
2019-04-14T01:26:02.928Z,34.67
2019-04-14T01:28:33.003Z,34.90
2019-04-14T01:31:03.372Z,36.30
2019-04-14T01:33:33.669Z,36.13
2019-04-14T01:36:03.981Z,35.43
2019-04-14T01:38:34.363Z,35.27
2019-04-14T01:41:04.241Z,38.63
2019-04-14T01:43:34.172Z,35.40
2019-04-14T01:46:11.590Z,34.10
2019-04-14T01:48:34.671Z,37.90
2019-04-14T01:51:11.380Z,33.60
2019-04-14T01:53:57.987Z,35.53
2019-04-14T01:56:45.010Z,34.53
2019-04-14T01:59:15.237Z,34.77
2019-04-14T02:01:45.697Z,35.57
2019-04-14T02:04:15.959Z,39.77
2019-04-14T02:06:46.252Z,36.23
2019-04-14T02:09:16.195Z,36.73
2019-04-14T02:11:46.608Z,35.33
2019-04-14T02:14:16.880Z,36.10
2019-04-14T02:16:52.156Z,33.30
2019-04-14T02:19:17.689Z,34.83
2019-04-14T02:21:47.787Z,38.90
2019-04-14T02:24:17.858Z,34.50
2019-04-14T02:26:47.999Z,37.87
2019-04-14T02:29:17.406Z,33.33
2019-04-14T02:32:17.343Z,34.83
2019-04-14T02:34:57.975Z,33.63
2019-04-14T02:39:54.231Z,37.27
2019-04-14T02:42:30.481Z,34.03
2019-04-14T02:49:51.044Z,37.63
2019-04-14T02:52:19.707Z,36.90
2019-04-14T03:04:56.401Z,41.67
2019-04-14T03:09:53.767Z,40.67
2019-04-14T03:15:20.169Z,34.43
2019-04-14T03:18:18.725Z,37.37
2019-04-14T03:20:59.124Z,34.47
2019-04-14T03:23:43.822Z,35.20
2019-04-14T03:26:08.309Z,37.10
2019-04-14T03:28:45.989Z,38.23
2019-04-14T03:34:16.941Z,40.83
2019-04-14T03:36:59.653Z,36.20
2019-04-14T03:38:58.843Z,39.03
2019-04-14T03:41:25.742Z,36.97
2019-04-14T03:43:48.390Z,37.97
2019-04-14T03:46:27.349Z,36.43
2019-04-14T03:51:31.442Z,33.77
2019-04-14T03:53:53.274Z,36.13
2019-04-14T03:56:37.797Z,36.87
2019-04-14T03:59:08.370Z,36.50
2019-04-14T04:01:39.080Z,41.10
2019-04-14T04:04:09.643Z,37.17
2019-04-14T04:06:39.939Z,39.17
2019-04-14T04:09:10.414Z,38.60
2019-04-14T04:11:41.111Z,39.50
2019-04-14T04:14:11.656Z,35.73
2019-04-14T04:17:02.096Z,39.07
2019-04-14T04:19:45.478Z,42.87
2019-04-14T04:22:32.575Z,35.60
2019-04-14T04:25:24.730Z,33.80
2019-04-14T04:28:28.040Z,36.77
2019-04-14T04:31:04.966Z,35.97
2019-04-14T04:33:42.131Z,33.20
2019-04-14T04:36:16.382Z,36.33
2019-04-14T04:38:59.612Z,34.00
2019-04-14T04:41:29.629Z,39.33
2019-04-14T04:43:58.994Z,43.77
2019-04-14T04:46:28.788Z,38.13
2019-04-14T04:49:08.196Z,41.73
2019-04-14T04:51:29.256Z,37.17
2019-04-14T04:53:59.467Z,40.10
2019-04-14T04:56:29.756Z,39.77
2019-04-14T04:58:59.151Z,38.10
2019-04-14T05:01:29.587Z,37.53
2019-04-14T05:04:00.251Z,35.30
2019-04-14T05:06:59.260Z,37.03
2019-04-14T05:10:04.689Z,33.57
2019-04-14T05:12:52.221Z,36.10
2019-04-14T05:15:35.869Z,34.67
2019-04-14T05:18:05.264Z,37.43
2019-04-14T05:20:35.561Z,38.77
2019-04-14T05:23:05.913Z,37.10
2019-04-14T05:25:36.525Z,35.90
2019-04-14T05:28:06.971Z,37.07
2019-04-14T05:30:37.173Z,32.87
2019-04-14T05:33:07.486Z,31.27
2019-04-14T05:35:37.943Z,33.10
2019-04-14T05:38:08.424Z,33.70
2019-04-14T05:40:38.613Z,35.53
2019-04-14T05:43:08.857Z,30.30
2019-04-14T05:45:39.435Z,33.53
2019-04-14T05:48:09.751Z,32.70
2019-04-14T05:50:40.058Z,35.13
2019-04-14T05:53:09.460Z,34.57
2019-04-14T05:55:39.532Z,34.80
2019-04-14T05:58:09.947Z,35.53
2019-04-14T06:00:42.124Z,34.03
2019-04-14T06:03:12.438Z,35.73
2019-04-14T06:05:42.797Z,33.93
2019-04-14T06:08:12.199Z,35.17
2019-04-14T06:10:41.596Z,34.37
2019-04-14T06:13:11.886Z,35.03
2019-04-14T06:15:41.371Z,33.47
2019-04-14T06:18:10.739Z,35.70
2019-04-14T06:20:40.151Z,32.63
2019-04-14T06:23:09.519Z,34.57
2019-04-14T06:25:38.932Z,29.27
2019-04-14T06:28:08.315Z,32.80
2019-04-14T06:30:55.299Z,33.53
2019-04-14T06:33:46.659Z,32.80
2019-04-14T06:36:33.443Z,30.60
2019-04-14T06:39:08.844Z,32.57
2019-04-14T06:41:38.230Z,33.07
2019-04-14T06:44:07.542Z,31.27
2019-04-14T06:46:36.966Z,32.13
2019-04-14T06:49:06.497Z,34.43
2019-04-14T06:51:35.874Z,31.90
2019-04-14T06:54:05.400Z,36.40
2019-04-14T06:56:34.762Z,31.17
2019-04-14T06:59:04.318Z,31.93
2019-04-14T07:01:33.772Z,32.50
2019-04-14T07:04:03.199Z,33.37
2019-04-14T07:06:32.605Z,31.43
2019-04-14T07:09:01.963Z,30.83
2019-04-14T07:11:31.360Z,35.63
2019-04-14T07:14:00.754Z,33.93
2019-04-14T07:16:30.091Z,32.27
2019-04-14T07:18:59.487Z,31.93
2019-04-14T07:21:28.866Z,34.13
2019-04-14T07:23:58.272Z,34.60
2019-04-14T07:26:27.671Z,33.80
2019-04-14T07:28:57.203Z,35.53
2019-04-14T07:31:48.302Z,32.20
2019-04-14T07:34:31.900Z,33.67
2019-04-14T07:37:38.461Z,34.27
2019-04-14T07:40:42.271Z,33.97
2019-04-14T07:43:26.093Z,31.60
2019-04-14T07:46:29.817Z,34.93
2019-04-14T07:49:05.387Z,35.87
2019-04-14T07:51:59.761Z,33.87
2019-04-14T07:54:45.968Z,35.57
2019-04-14T07:57:27.849Z,32.10
2019-04-14T08:00:19.339Z,37.50
2019-04-14T08:02:59.280Z,37.37
2019-04-14T08:05:36.569Z,36.70
2019-04-14T08:08:05.995Z,36.03
2019-04-14T08:10:35.419Z,36.07
2019-04-14T08:13:04.795Z,34.70
2019-04-14T08:15:34.592Z,37.00
2019-04-14T08:18:04.102Z,35.60
2019-04-14T08:20:33.638Z,38.67
2019-04-14T08:23:03.055Z,37.60
2019-04-14T08:25:32.431Z,35.63
2019-04-14T08:28:02.656Z,35.43
2019-04-14T08:30:32.050Z,33.40
2019-04-14T08:33:01.446Z,32.60
2019-04-14T08:35:30.879Z,36.47
2019-04-14T08:38:00.263Z,36.97
2019-04-14T08:40:29.679Z,36.67
2019-04-14T08:43:16.614Z,37.93
2019-04-14T08:46:03.335Z,36.30
2019-04-14T08:48:54.463Z,31.80
2019-04-14T08:51:28.215Z,35.07
2019-04-14T08:54:06.410Z,32.60
2019-04-14T08:56:50.745Z,30.70
2019-04-14T08:59:41.834Z,35.10
2019-04-14T09:02:30.272Z,34.90
2019-04-14T09:05:10.536Z,30.07
2019-04-14T09:08:01.664Z,31.57
2019-04-14T09:10:34.767Z,36.47
2019-04-14T09:13:05.459Z,30.07
2019-04-14T09:15:34.887Z,31.27
2019-04-14T09:18:05.405Z,36.97
2019-04-14T09:20:34.856Z,31.67
2019-04-14T09:23:04.519Z,33.10
2019-04-14T09:25:33.960Z,30.70
2019-04-14T09:28:03.368Z,30.53
2019-04-14T09:30:34.907Z,29.20
2019-04-14T09:33:04.318Z,30.87
2019-04-14T09:35:34.027Z,31.30
2019-04-14T09:38:03.403Z,32.60
2019-04-14T09:40:32.800Z,28.60
2019-04-14T09:43:02.302Z,30.23
2019-04-14T09:45:31.704Z,36.67
2019-04-14T09:48:01.106Z,32.97
2019-04-14T09:50:30.662Z,33.80
2019-04-14T09:53:00.080Z,36.20
2019-04-14T09:55:29.602Z,34.47
2019-04-14T09:57:59.146Z,32.77
2019-04-14T10:00:28.559Z,30.97
2019-04-14T10:02:58.026Z,32.93
2019-04-14T10:05:27.588Z,31.70
2019-04-14T10:07:57.051Z,31.33
2019-04-14T10:10:28.569Z,32.77
2019-04-14T10:12:57.641Z,33.73
2019-04-14T10:15:26.955Z,32.57
2019-04-14T10:17:56.391Z,29.97
2019-04-14T10:20:25.865Z,30.43
2019-04-14T10:22:55.215Z,33.50
2019-04-14T10:25:24.663Z,32.70
2019-04-14T10:27:54.123Z,30.13
2019-04-14T10:30:23.528Z,33.83
2019-04-14T10:32:52.942Z,33.87
2019-04-14T10:35:22.483Z,34.23
2019-04-14T10:37:51.883Z,31.63
2019-04-14T10:40:21.381Z,33.73
2019-04-14T10:42:50.780Z,31.63
2019-04-14T10:45:20.210Z,31.63
2019-04-14T10:47:49.623Z,31.83
2019-04-14T10:50:30.252Z,29.13
2019-04-14T10:52:50.154Z,30.27
2019-04-14T10:55:19.644Z,29.17
2019-04-14T10:57:49.229Z,28.70
2019-04-14T11:00:19.013Z,32.37
2019-04-14T11:02:48.527Z,29.43
2019-04-14T11:05:17.992Z,27.27
2019-04-14T11:07:47.424Z,30.47
2019-04-14T11:10:16.943Z,29.10
2019-04-14T11:12:46.331Z,33.63
2019-04-14T11:15:15.991Z,30.50
2019-04-14T11:17:45.387Z,30.43
2019-04-14T11:20:14.820Z,37.47
2019-04-14T11:22:44.319Z,34.57
2019-04-14T11:25:13.744Z,30.73
2019-04-14T11:27:43.129Z,28.60
2019-04-14T11:30:16.112Z,30.57
2019-04-14T11:33:16.403Z,27.97
2019-04-14T11:35:53.647Z,27.97
2019-04-14T11:38:32.195Z,25.37
2019-04-14T11:41:04.091Z,28.90
2019-04-14T11:43:33.517Z,29.80
2019-04-14T11:46:03.748Z,27.10
2019-04-14T11:48:33.601Z,28.87
2019-04-14T11:51:03.249Z,29.77
2019-04-14T11:53:32.702Z,27.43
2019-04-14T11:56:02.112Z,31.47
2019-04-14T11:58:32.285Z,27.33
2019-04-14T12:01:19.306Z,33.07
2019-04-14T12:04:02.854Z,28.90
2019-04-14T12:07:03.200Z,30.27
2019-04-14T12:09:35.381Z,28.17
2019-04-14T12:12:06.087Z,28.37
2019-04-14T12:14:35.483Z,30.57
2019-04-14T12:17:04.936Z,27.43
2019-04-14T12:19:34.291Z,29.90
2019-04-14T12:22:08.600Z,26.87
2019-04-14T12:24:34.867Z,28.10
2019-04-14T12:27:04.289Z,27.13
2019-04-14T12:29:34.732Z,28.07
2019-04-14T12:32:06.290Z,27.77
2019-04-14T12:34:35.835Z,28.17
2019-04-14T12:37:05.716Z,26.53
2019-04-14T12:39:35.506Z,38.07
2019-04-14T12:42:22.558Z,27.40
2019-04-14T12:45:13.804Z,25.50
2019-04-14T12:48:02.241Z,27.97
2019-04-14T12:50:38.241Z,28.10
2019-04-14T12:53:08.150Z,28.43
2019-04-14T12:55:37.567Z,27.80
2019-04-14T12:58:07.564Z,25.37
2019-04-14T13:00:43.049Z,28.00
2019-04-14T13:03:12.839Z,26.77
2019-04-14T13:05:42.400Z,29.57
2019-04-14T13:08:11.996Z,27.30
2019-04-14T13:10:41.787Z,29.03
2019-04-14T13:13:11.252Z,27.53
2019-04-14T13:15:40.645Z,28.73
2019-04-14T13:18:10.132Z,26.73
2019-04-14T13:20:39.622Z,25.70
2019-04-14T13:23:09.006Z,26.33
2019-04-14T13:25:38.434Z,27.13
2019-04-14T13:28:07.830Z,26.87
2019-04-14T13:30:40.512Z,26.90
2019-04-14T13:33:10.387Z,25.73
2019-04-14T13:35:39.843Z,29.20
2019-04-14T13:38:09.234Z,26.07
2019-04-14T13:40:38.633Z,27.17
2019-04-14T13:43:08.104Z,28.67
2019-04-14T13:45:37.531Z,27.07
2019-04-14T13:48:06.984Z,27.77
2019-04-14T13:50:36.459Z,26.00
2019-04-14T13:53:05.856Z,26.20
2019-04-14T13:55:35.322Z,24.53
2019-04-14T13:58:04.972Z,23.97
2019-04-14T14:00:34.586Z,24.33
2019-04-14T14:03:04.087Z,24.67
2019-04-14T14:05:34.290Z,25.27
2019-04-14T14:08:03.899Z,25.83
2019-04-14T14:10:33.647Z,26.68
2019-04-14T14:13:28.057Z,27.27
2019-04-14T14:16:16.294Z,25.30
2019-04-14T14:18:56.328Z,23.40
2019-04-14T14:21:43.958Z,24.07
2019-04-14T14:24:33.969Z,22.87
2019-04-14T14:27:03.821Z,24.32
2019-04-14T14:29:33.467Z,26.63
2019-04-14T14:32:05.204Z,24.67
2019-04-14T14:34:35.283Z,22.97
2019-04-14T14:37:04.861Z,23.67
2019-04-14T14:39:34.556Z,21.40
2019-04-14T14:42:04.159Z,22.80
2019-04-14T14:44:38.551Z,23.27
2019-04-14T14:47:20.241Z,25.97
2019-04-14T14:50:01.342Z,28.53
2019-04-14T14:52:31.592Z,27.30
2019-04-14T14:55:01.414Z,24.33
2019-04-14T14:57:30.898Z,24.63
2019-04-14T15:00:00.334Z,23.87
2019-04-14T15:02:29.742Z,23.87
2019-04-14T15:04:59.154Z,23.65
2019-04-14T15:07:28.564Z,24.93
2019-04-14T15:09:57.980Z,23.93
2019-04-14T15:12:27.365Z,22.83
2019-04-14T15:14:56.771Z,22.83
2019-04-14T15:17:26.711Z,23.07
2019-04-14T15:19:56.096Z,24.63
2019-04-14T15:22:26.904Z,25.37
2019-04-14T15:24:56.250Z,24.43
2019-04-14T15:27:25.677Z,23.30
2019-04-14T15:29:55.111Z,24.83
2019-04-14T15:32:24.510Z,24.27
2019-04-14T15:34:53.884Z,25.87
2019-04-14T15:37:23.578Z,23.20
2019-04-14T15:39:52.989Z,27.00
2019-04-14T15:42:22.507Z,27.30
2019-04-14T15:44:51.915Z,27.57
2019-04-14T15:47:21.427Z,26.57
2019-04-14T15:49:51.020Z,47.87
2019-04-14T15:52:20.505Z,96.83
2019-04-14T15:54:49.898Z,25.30
2019-04-14T15:57:32.946Z,23.83
2019-04-14T16:00:30.091Z,25.10
2019-04-14T16:03:24.219Z,29.53
2019-04-14T16:06:06.799Z,24.53
2019-04-14T16:08:43.648Z,26.23
2019-04-14T16:11:23.004Z,24.10
2019-04-14T16:14:21.989Z,25.10
2019-04-14T16:17:10.095Z,26.07
2019-04-14T16:19:45.860Z,24.60
2019-04-14T16:22:15.294Z,23.87
2019-04-14T16:24:45.010Z,25.80
2019-04-14T16:27:36.055Z,25.30
2019-04-14T16:30:22.595Z,25.43
2019-04-14T16:33:10.270Z,22.70
2019-04-14T16:35:39.839Z,25.20
2019-04-14T16:38:09.352Z,23.53
2019-04-14T16:40:39.079Z,21.27
2019-04-14T16:43:08.607Z,21.33
2019-04-14T16:45:38.028Z,32.20
2019-04-14T16:48:07.589Z,24.50
2019-04-14T16:50:37.254Z,20.87
2019-04-14T16:53:15.596Z,21.40
2019-04-14T16:56:03.235Z,22.33
2019-04-14T16:58:36.276Z,26.27
2019-04-14T17:01:08.579Z,22.53
2019-04-14T17:03:38.024Z,22.67
2019-04-14T17:06:07.436Z,22.37
2019-04-14T17:08:36.834Z,21.53
2019-04-14T17:11:06.401Z,23.70
2019-04-14T17:13:38.739Z,20.03
2019-04-14T17:16:42.123Z,24.27
2019-04-14T17:19:16.402Z,22.53
2019-04-14T17:21:53.247Z,22.40
2019-04-14T17:24:40.613Z,21.47
2019-04-14T17:27:18.163Z,24.10
2019-04-14T17:29:57.899Z,23.53
2019-04-14T17:32:46.893Z,26.10
2019-04-14T17:35:35.199Z,27.67
2019-04-14T17:38:08.868Z,25.93
2019-04-14T17:40:56.447Z,28.27
2019-04-14T17:43:38.828Z,22.57
2019-04-14T17:46:16.868Z,22.30
2019-04-14T17:49:14.155Z,25.27
2019-04-14T17:51:49.787Z,24.83
2019-04-14T17:54:46.242Z,23.47
2019-04-14T17:57:33.207Z,26.23
2019-04-14T18:00:21.789Z,24.67
2019-04-14T18:02:57.317Z,25.10
2019-04-14T18:05:45.652Z,23.40
2019-04-14T18:08:32.524Z,28.07
2019-04-14T18:11:13.937Z,25.70
2019-04-14T18:14:05.685Z,26.97
2019-04-14T18:16:45.763Z,27.17
2019-04-14T18:19:22.523Z,24.60
2019-04-14T18:21:52.531Z,41.20
2019-04-14T18:24:22.041Z,53.20
2019-04-14T18:26:51.625Z,73.97
2019-04-14T18:29:46.079Z,47.43
2019-04-14T18:32:26.018Z,71.90
2019-04-14T18:35:06.706Z,47.30
2019-04-14T18:37:55.149Z,26.43
2019-04-14T18:40:28.855Z,23.27
2019-04-14T18:43:32.635Z,25.57
2019-04-14T18:46:10.271Z,23.03
2019-04-14T18:48:49.924Z,22.97
2019-04-14T18:51:38.251Z,25.27
2019-04-14T18:54:29.367Z,22.77
2019-04-14T18:57:18.735Z,24.93
2019-04-14T19:00:09.564Z,22.37
2019-04-14T19:02:38.946Z,29.93
2019-04-14T19:05:08.396Z,25.63
2019-04-14T19:07:37.844Z,24.50
2019-04-14T19:10:07.713Z,24.20
2019-04-14T19:12:51.730Z,23.43
2019-04-14T19:15:58.167Z,25.63
2019-04-14T19:18:30.416Z,26.67
2019-04-14T19:21:02.986Z,25.17
2019-04-14T19:23:32.388Z,23.37
2019-04-14T19:26:01.803Z,24.90
2019-04-14T19:28:31.211Z,25.30
2019-04-14T19:31:00.775Z,26.03
2019-04-14T19:33:30.187Z,25.83
2019-04-14T19:35:59.601Z,23.53
2019-04-14T19:38:29.088Z,20.67
2019-04-14T19:40:58.526Z,24.77
2019-04-14T19:43:27.950Z,23.30
2019-04-14T19:45:57.570Z,24.07
2019-04-14T19:48:26.989Z,26.03
2019-04-14T19:50:56.430Z,24.33
2019-04-14T19:53:26.199Z,25.40
2019-04-14T19:55:55.660Z,25.47
2019-04-14T19:58:25.223Z,23.37
2019-04-14T20:00:59.089Z,23.73
2019-04-14T20:03:28.633Z,22.80
2019-04-14T20:05:58.140Z,22.43
2019-04-14T20:08:27.595Z,23.70
2019-04-14T20:10:57.222Z,23.30
2019-04-14T20:13:28.436Z,21.53
2019-04-14T20:16:09.351Z,25.13
2019-04-14T20:19:15.947Z,24.57
2019-04-14T20:21:58.100Z,22.47
2019-04-14T20:24:37.167Z,21.63
2019-04-14T20:27:16.325Z,20.97
2019-04-14T20:29:49.433Z,21.87
2019-04-14T20:32:24.304Z,20.73
2019-04-14T20:34:53.726Z,23.23
2019-04-14T20:37:23.176Z,21.23
2019-04-14T20:39:52.586Z,19.83
2019-04-14T20:42:22.040Z,20.50
2019-04-14T20:44:51.419Z,20.67
2019-04-14T20:47:20.848Z,20.50
2019-04-14T20:49:50.259Z,19.70
2019-04-14T20:52:19.679Z,21.10
2019-04-14T20:54:50.424Z,21.80
2019-04-14T20:57:19.839Z,21.20
2019-04-14T20:59:49.209Z,20.77
2019-04-14T21:02:46.799Z,19.83
2019-04-14T21:05:26.490Z,24.50
2019-04-14T21:08:15.237Z,19.13
2019-04-14T21:10:57.439Z,18.43
2019-04-14T21:13:35.707Z,18.00
2019-04-14T21:16:18.289Z,18.77
2019-04-14T21:18:53.094Z,20.83
2019-04-14T21:21:40.199Z,21.93
2019-04-14T21:24:17.767Z,19.00
2019-04-14T21:27:09.154Z,20.60
2019-04-14T21:29:44.114Z,23.27
2019-04-14T21:32:19.551Z,21.13
2019-04-14T21:35:14.124Z,19.30
2019-04-14T21:38:02.633Z,19.70
2019-04-14T21:40:46.394Z,17.07
2019-04-14T21:43:15.804Z,19.50
2019-04-14T21:45:45.211Z,18.73
2019-04-14T21:48:14.651Z,18.50
2019-04-14T21:50:44.026Z,17.87
2019-04-14T21:53:13.423Z,20.77
2019-04-14T21:55:42.719Z,18.37
2019-04-14T21:58:20.512Z,19.10
2019-04-14T22:01:53.726Z,18.90
2019-04-14T22:04:41.397Z,18.70
2019-04-14T22:07:38.611Z,21.47
2019-04-14T22:10:19.667Z,18.87
2019-04-14T22:12:49.291Z,21.80
2019-04-14T22:15:18.693Z,18.07
2019-04-14T22:17:48.072Z,18.87
2019-04-14T22:20:17.451Z,18.47
2019-04-14T22:22:46.876Z,18.40
2019-04-14T22:25:16.268Z,17.93
2019-04-14T22:27:45.768Z,19.93
2019-04-14T22:30:15.259Z,16.37
2019-04-14T22:32:44.670Z,18.43
2019-04-14T22:35:14.151Z,17.30
2019-04-14T22:37:43.542Z,17.57
2019-04-14T22:40:13.059Z,16.27
2019-04-14T22:42:42.446Z,16.80
2019-04-14T22:45:12.027Z,18.20
2019-04-14T22:47:41.469Z,17.60
2019-04-14T22:50:11.455Z,16.63
2019-04-14T22:52:41.947Z,18.33
2019-04-14T22:55:11.437Z,17.37
2019-04-14T22:57:40.852Z,16.27
2019-04-14T23:00:14.928Z,17.30
2019-04-14T23:02:57.575Z,16.07
2019-04-14T23:05:42.603Z,18.97
2019-04-14T23:08:31.002Z,17.07
2019-04-14T23:11:11.689Z,15.97
2019-04-14T23:14:02.810Z,16.90
2019-04-14T23:16:53.903Z,16.23
2019-04-14T23:19:36.959Z,16.57
2019-04-14T23:22:27.045Z,16.80
2019-04-14T23:24:56.414Z,15.57
2019-04-14T23:27:25.820Z,16.33
2019-04-14T23:29:55.308Z,18.00
2019-04-14T23:32:24.699Z,16.37
2019-04-14T23:34:54.075Z,16.60
2019-04-14T23:37:23.475Z,16.50
2019-04-14T23:39:52.864Z,16.83
2019-04-14T23:42:22.273Z,16.13
2019-04-14T23:44:51.624Z,18.20
2019-04-14T23:47:21.014Z,17.13
2019-04-14T23:49:50.509Z,16.47
2019-04-14T23:52:19.876Z,16.93
2019-04-14T23:54:49.283Z,17.53
2019-04-14T23:57:18.659Z,18.33
2019-04-14T23:59:48.079Z,16.93
